sensor_id;sensor_type;location;lat;lon;timestamp;P1;durP1;ratioP1;P2;durP2;ratioP2
35677;SDS011;21791;42.828;74.582;2023-02-11T00:00:56;10.98;;;5.90;;
35677;SDS011;21791;42.828;74.582;2023-02-11T00:03:23;8.77;;;4.75;;
35677;SDS011;21791;42.828;74.582;2023-02-11T00:05:56;10.15;;;5.00;;
35677;SDS011;21791;42.828;74.582;2023-02-11T00:08:26;10.73;;;5.45;;
35677;SDS011;21791;42.828;74.582;2023-02-11T00:10:56;8.57;;;5.15;;
35677;SDS011;21791;42.828;74.582;2023-02-11T00:13:23;13.88;;;6.22;;
35677;SDS011;21791;42.828;74.582;2023-02-11T00:15:50;19.23;;;8.80;;
35677;SDS011;21791;42.828;74.582;2023-02-11T00:18:16;19.90;;;9.32;;
35677;SDS011;21791;42.828;74.582;2023-02-11T00:20:43;17.85;;;8.88;;
35677;SDS011;21791;42.828;74.582;2023-02-11T00:23:10;19.73;;;9.23;;
35677;SDS011;21791;42.828;74.582;2023-02-11T00:25:39;21.73;;;9.02;;
35677;SDS011;21791;42.828;74.582;2023-02-11T00:28:07;21.60;;;9.38;;
35677;SDS011;21791;42.828;74.582;2023-02-11T00:30:34;21.38;;;10.57;;
35677;SDS011;21791;42.828;74.582;2023-02-11T00:33:01;26.83;;;11.25;;
35677;SDS011;21791;42.828;74.582;2023-02-11T00:35:28;28.55;;;11.85;;
35677;SDS011;21791;42.828;74.582;2023-02-11T00:37:54;29.48;;;12.48;;
35677;SDS011;21791;42.828;74.582;2023-02-11T00:40:21;27.85;;;10.98;;
35677;SDS011;21791;42.828;74.582;2023-02-11T00:42:48;22.35;;;9.82;;
35677;SDS011;21791;42.828;74.582;2023-02-11T00:45:14;15.27;;;6.35;;
35677;SDS011;21791;42.828;74.582;2023-02-11T00:47:44;11.60;;;6.00;;
35677;SDS011;21791;42.828;74.582;2023-02-11T00:50:11;9.88;;;6.03;;
35677;SDS011;21791;42.828;74.582;2023-02-11T00:52:37;8.65;;;4.80;;
35677;SDS011;21791;42.828;74.582;2023-02-11T00:55:04;7.50;;;4.47;;
35677;SDS011;21791;42.828;74.582;2023-02-11T00:57:30;10.80;;;4.82;;
35677;SDS011;21791;42.828;74.582;2023-02-11T00:59:57;7.97;;;4.28;;
35677;SDS011;21791;42.828;74.582;2023-02-11T01:02:23;9.88;;;4.65;;
35677;SDS011;21791;42.828;74.582;2023-02-11T01:04:49;7.70;;;4.50;;
35677;SDS011;21791;42.828;74.582;2023-02-11T01:07:16;8.00;;;4.68;;
35677;SDS011;21791;42.828;74.582;2023-02-11T01:09:43;8.80;;;4.22;;
35677;SDS011;21791;42.828;74.582;2023-02-11T01:12:09;7.18;;;4.25;;
35677;SDS011;21791;42.828;74.582;2023-02-11T01:14:36;7.50;;;3.88;;
35677;SDS011;21791;42.828;74.582;2023-02-11T01:17:03;6.13;;;3.47;;
35677;SDS011;21791;42.828;74.582;2023-02-11T01:19:30;5.97;;;3.42;;
35677;SDS011;21791;42.828;74.582;2023-02-11T01:21:57;4.45;;;2.53;;
35677;SDS011;21791;42.828;74.582;2023-02-11T01:24:23;4.63;;;2.67;;
35677;SDS011;21791;42.828;74.582;2023-02-11T01:26:50;4.10;;;2.90;;
35677;SDS011;21791;42.828;74.582;2023-02-11T01:29:16;4.28;;;2.38;;
35677;SDS011;21791;42.828;74.582;2023-02-11T01:31:43;5.07;;;2.72;;
35677;SDS011;21791;42.828;74.582;2023-02-11T01:34:10;5.53;;;2.60;;
35677;SDS011;21791;42.828;74.582;2023-02-11T01:36:36;3.70;;;2.25;;
35677;SDS011;21791;42.828;74.582;2023-02-11T01:39:03;5.13;;;2.50;;
35677;SDS011;21791;42.828;74.582;2023-02-11T01:41:29;4.25;;;2.40;;
35677;SDS011;21791;42.828;74.582;2023-02-11T01:43:55;5.30;;;2.75;;
35677;SDS011;21791;42.828;74.582;2023-02-11T01:46:30;3.70;;;2.20;;
35677;SDS011;21791;42.828;74.582;2023-02-11T01:49:02;4.40;;;2.00;;
35677;SDS011;21791;42.828;74.582;2023-02-11T01:51:38;3.03;;;1.75;;
35677;SDS011;21791;42.828;74.582;2023-02-11T01:54:09;3.05;;;2.15;;
35677;SDS011;21791;42.828;74.582;2023-02-11T01:56:58;5.78;;;2.40;;
35677;SDS011;21791;42.828;74.582;2023-02-11T01:59:46;4.55;;;2.70;;
35677;SDS011;21791;42.828;74.582;2023-02-11T02:02:21;5.07;;;2.45;;
35677;SDS011;21791;42.828;74.582;2023-02-11T02:05:18;5.28;;;2.70;;
35677;SDS011;21791;42.828;74.582;2023-02-11T02:07:53;4.10;;;2.40;;
35677;SDS011;21791;42.828;74.582;2023-02-11T02:10:36;5.43;;;2.47;;
35677;SDS011;21791;42.828;74.582;2023-02-11T02:13:08;4.47;;;2.40;;
35677;SDS011;21791;42.828;74.582;2023-02-11T02:15:35;6.82;;;3.58;;
35677;SDS011;21791;42.828;74.582;2023-02-11T02:34:49;21.90;;;7.65;;
35677;SDS011;21791;42.828;74.582;2023-02-11T02:37:39;14.77;;;5.95;;
35677;SDS011;21791;42.828;74.582;2023-02-11T02:40:05;9.00;;;4.82;;
35677;SDS011;21791;42.828;74.582;2023-02-11T02:42:39;7.72;;;2.58;;
35677;SDS011;21791;42.828;74.582;2023-02-11T02:45:07;4.47;;;2.78;;
35677;SDS011;21791;42.828;74.582;2023-02-11T02:47:35;6.93;;;2.40;;
35677;SDS011;21791;42.828;74.582;2023-02-11T02:50:02;8.25;;;2.40;;
35677;SDS011;21791;42.828;74.582;2023-02-11T02:55:19;2.38;;;1.30;;
35677;SDS011;21791;42.828;74.582;2023-02-11T03:06:16;3.13;;;1.55;;
35677;SDS011;21791;42.828;74.582;2023-02-11T03:11:21;3.72;;;1.38;;
35677;SDS011;21791;42.828;74.582;2023-02-11T03:13:48;2.20;;;1.30;;
35677;SDS011;21791;42.828;74.582;2023-02-11T03:16:18;5.20;;;1.20;;
35677;SDS011;21791;42.828;74.582;2023-02-11T03:19:33;1.88;;;1.20;;
35677;SDS011;21791;42.828;74.582;2023-02-11T03:21:43;3.70;;;1.38;;
35677;SDS011;21791;42.828;74.582;2023-02-11T03:24:13;2.78;;;1.40;;
35677;SDS011;21791;42.828;74.582;2023-02-11T03:26:48;3.63;;;1.40;;
35677;SDS011;21791;42.828;74.582;2023-02-11T03:32:15;3.25;;;1.65;;
35677;SDS011;21791;42.828;74.582;2023-02-11T03:34:54;3.47;;;1.60;;
35677;SDS011;21791;42.828;74.582;2023-02-11T03:37:26;3.90;;;1.70;;
35677;SDS011;21791;42.828;74.582;2023-02-11T03:40:01;2.75;;;1.38;;
35677;SDS011;21791;42.828;74.582;2023-02-11T03:42:38;3.45;;;1.40;;
35677;SDS011;21791;42.828;74.582;2023-02-11T03:45:29;2.88;;;1.58;;
35677;SDS011;21791;42.828;74.582;2023-02-11T03:48:00;4.28;;;1.58;;
35677;SDS011;21791;42.828;74.582;2023-02-11T03:50:39;2.63;;;1.40;;
35677;SDS011;21791;42.828;74.582;2023-02-11T03:53:07;3.58;;;1.50;;
35677;SDS011;21791;42.828;74.582;2023-02-11T03:55:37;4.88;;;1.15;;
35677;SDS011;21791;42.828;74.582;2023-02-11T03:58:05;3.40;;;1.20;;
35677;SDS011;21791;42.828;74.582;2023-02-11T04:00:36;3.08;;;1.05;;
35677;SDS011;21791;42.828;74.582;2023-02-11T04:03:06;2.15;;;0.93;;
35677;SDS011;21791;42.828;74.582;2023-02-11T04:05:33;2.33;;;0.90;;
35677;SDS011;21791;42.828;74.582;2023-02-11T04:08:00;2.72;;;1.30;;
35677;SDS011;21791;42.828;74.582;2023-02-11T04:10:26;8.60;;;2.88;;
35677;SDS011;21791;42.828;74.582;2023-02-11T04:12:53;11.80;;;3.38;;
35677;SDS011;21791;42.828;74.582;2023-02-11T04:15:19;9.18;;;3.55;;
35677;SDS011;21791;42.828;74.582;2023-02-11T04:17:46;5.68;;;2.92;;
35677;SDS011;21791;42.828;74.582;2023-02-11T04:20:13;7.75;;;3.30;;
35677;SDS011;21791;42.828;74.582;2023-02-11T04:22:40;5.50;;;3.10;;
35677;SDS011;21791;42.828;74.582;2023-02-11T04:25:06;13.10;;;3.90;;
35677;SDS011;21791;42.828;74.582;2023-02-11T04:27:33;6.80;;;3.47;;
35677;SDS011;21791;42.828;74.582;2023-02-11T04:30:01;7.60;;;4.88;;
35677;SDS011;21791;42.828;74.582;2023-02-11T04:32:28;8.50;;;4.70;;
35677;SDS011;21791;42.828;74.582;2023-02-11T04:34:55;6.30;;;4.00;;
35677;SDS011;21791;42.828;74.582;2023-02-11T04:37:21;8.98;;;4.68;;
35677;SDS011;21791;42.828;74.582;2023-02-11T04:39:48;9.05;;;4.60;;
35677;SDS011;21791;42.828;74.582;2023-02-11T04:42:15;5.78;;;3.38;;
35677;SDS011;21791;42.828;74.582;2023-02-11T04:44:41;5.25;;;3.30;;
35677;SDS011;21791;42.828;74.582;2023-02-11T04:47:08;5.47;;;3.40;;
35677;SDS011;21791;42.828;74.582;2023-02-11T04:49:36;4.43;;;2.88;;
35677;SDS011;21791;42.828;74.582;2023-02-11T04:52:03;6.07;;;3.42;;
35677;SDS011;21791;42.828;74.582;2023-02-11T04:54:30;7.22;;;3.42;;
35677;SDS011;21791;42.828;74.582;2023-02-11T04:56:56;5.05;;;3.38;;
35677;SDS011;21791;42.828;74.582;2023-02-11T04:59:23;6.07;;;2.97;;
35677;SDS011;21791;42.828;74.582;2023-02-11T05:01:49;5.28;;;3.40;;
35677;SDS011;21791;42.828;74.582;2023-02-11T05:04:16;4.88;;;2.85;;
35677;SDS011;21791;42.828;74.582;2023-02-11T05:06:42;7.43;;;3.10;;
35677;SDS011;21791;42.828;74.582;2023-02-11T05:09:12;5.55;;;3.00;;
35677;SDS011;21791;42.828;74.582;2023-02-11T05:11:38;5.40;;;3.10;;
35677;SDS011;21791;42.828;74.582;2023-02-11T05:14:05;5.18;;;3.40;;
35677;SDS011;21791;42.828;74.582;2023-02-11T05:16:32;5.85;;;3.80;;
35677;SDS011;21791;42.828;74.582;2023-02-11T05:18:59;5.97;;;4.00;;
35677;SDS011;21791;42.828;74.582;2023-02-11T05:21:26;9.07;;;5.78;;
35677;SDS011;21791;42.828;74.582;2023-02-11T05:23:52;8.98;;;4.68;;
35677;SDS011;21791;42.828;74.582;2023-02-11T05:26:19;9.43;;;5.00;;
35677;SDS011;21791;42.828;74.582;2023-02-11T05:28:46;8.63;;;5.38;;
35677;SDS011;21791;42.828;74.582;2023-02-11T05:31:12;7.03;;;4.05;;
35677;SDS011;21791;42.828;74.582;2023-02-11T05:33:39;10.65;;;4.32;;
35677;SDS011;21791;42.828;74.582;2023-02-11T05:36:07;7.40;;;4.70;;
35677;SDS011;21791;42.828;74.582;2023-02-11T05:38:35;7.25;;;4.32;;
35677;SDS011;21791;42.828;74.582;2023-02-11T05:41:03;8.77;;;4.40;;
35677;SDS011;21791;42.828;74.582;2023-02-11T05:43:30;7.32;;;4.47;;
35677;SDS011;21791;42.828;74.582;2023-02-11T05:45:59;6.53;;;4.43;;
35677;SDS011;21791;42.828;74.582;2023-02-11T05:48:25;6.43;;;4.18;;
35677;SDS011;21791;42.828;74.582;2023-02-11T05:50:52;6.47;;;4.15;;
35677;SDS011;21791;42.828;74.582;2023-02-11T05:53:19;5.05;;;3.17;;
35677;SDS011;21791;42.828;74.582;2023-02-11T05:55:45;5.95;;;3.00;;
35677;SDS011;21791;42.828;74.582;2023-02-11T05:58:12;5.43;;;3.13;;
35677;SDS011;21791;42.828;74.582;2023-02-11T06:00:38;5.85;;;3.90;;
35677;SDS011;21791;42.828;74.582;2023-02-11T06:03:05;5.68;;;2.47;;
35677;SDS011;21791;42.828;74.582;2023-02-11T06:05:32;3.58;;;2.50;;
35677;SDS011;21791;42.828;74.582;2023-02-11T06:07:58;4.65;;;2.67;;
35677;SDS011;21791;42.828;74.582;2023-02-11T06:10:25;5.65;;;2.88;;
35677;SDS011;21791;42.828;74.582;2023-02-11T06:12:52;2.65;;;1.73;;
35677;SDS011;21791;42.828;74.582;2023-02-11T06:15:18;3.47;;;2.10;;
35677;SDS011;21791;42.828;74.582;2023-02-11T06:17:45;2.85;;;1.80;;
35677;SDS011;21791;42.828;74.582;2023-02-11T06:20:11;3.53;;;2.17;;
35677;SDS011;21791;42.828;74.582;2023-02-11T06:22:37;3.28;;;1.90;;
35677;SDS011;21791;42.828;74.582;2023-02-11T06:25:04;2.55;;;2.00;;
35677;SDS011;21791;42.828;74.582;2023-02-11T06:27:31;4.80;;;2.30;;
35677;SDS011;21791;42.828;74.582;2023-02-11T06:29:57;4.32;;;1.70;;
35677;SDS011;21791;42.828;74.582;2023-02-11T06:32:25;3.47;;;2.22;;
35677;SDS011;21791;42.828;74.582;2023-02-11T06:34:52;7.18;;;2.85;;
35677;SDS011;21791;42.828;74.582;2023-02-11T06:37:19;3.95;;;2.42;;
35677;SDS011;21791;42.828;74.582;2023-02-11T06:39:45;6.90;;;3.92;;
35677;SDS011;21791;42.828;74.582;2023-02-11T06:42:12;6.82;;;4.13;;
35677;SDS011;21791;42.828;74.582;2023-02-11T06:44:38;5.90;;;3.72;;
35677;SDS011;21791;42.828;74.582;2023-02-11T06:47:05;7.40;;;3.65;;
35677;SDS011;21791;42.828;74.582;2023-02-11T06:49:32;8.18;;;4.03;;
35677;SDS011;21791;42.828;74.582;2023-02-11T06:51:59;4.63;;;2.70;;
35677;SDS011;21791;42.828;74.582;2023-02-11T06:54:25;3.83;;;2.25;;
35677;SDS011;21791;42.828;74.582;2023-02-11T06:56:52;5.05;;;2.40;;
35677;SDS011;21791;42.828;74.582;2023-02-11T06:59:19;1.90;;;1.20;;
35677;SDS011;21791;42.828;74.582;2023-02-11T07:01:46;1.50;;;1.13;;
35677;SDS011;21791;42.828;74.582;2023-02-11T07:04:13;2.63;;;1.88;;
35677;SDS011;21791;42.828;74.582;2023-02-11T07:06:39;4.65;;;2.72;;
35677;SDS011;21791;42.828;74.582;2023-02-11T07:09:06;6.57;;;3.92;;
35677;SDS011;21791;42.828;74.582;2023-02-11T07:11:36;9.43;;;6.38;;
35677;SDS011;21791;42.828;74.582;2023-02-11T07:14:03;3.50;;;2.30;;
35677;SDS011;21791;42.828;74.582;2023-02-11T07:16:33;5.90;;;4.05;;
35677;SDS011;21791;42.828;74.582;2023-02-11T07:18:59;4.97;;;2.92;;
35677;SDS011;21791;42.828;74.582;2023-02-11T07:21:26;5.32;;;3.40;;
35677;SDS011;21791;42.828;74.582;2023-02-11T07:23:53;8.27;;;3.75;;
35677;SDS011;21791;42.828;74.582;2023-02-11T07:26:20;5.22;;;3.50;;
35677;SDS011;21791;42.828;74.582;2023-02-11T07:28:49;6.43;;;3.22;;
35677;SDS011;21791;42.828;74.582;2023-02-11T07:31:37;4.72;;;2.78;;
35677;SDS011;21791;42.828;74.582;2023-02-11T07:34:02;38.03;;;25.50;;
35677;SDS011;21791;42.828;74.582;2023-02-11T07:36:29;44.85;;;29.02;;
35677;SDS011;21791;42.828;74.582;2023-02-11T07:38:56;41.33;;;26.67;;
35677;SDS011;21791;42.828;74.582;2023-02-11T07:41:24;49.72;;;30.77;;
35677;SDS011;21791;42.828;74.582;2023-02-11T07:43:51;53.88;;;32.40;;
35677;SDS011;21791;42.828;74.582;2023-02-11T07:46:20;50.47;;;30.58;;
35677;SDS011;21791;42.828;74.582;2023-02-11T07:48:46;50.42;;;27.20;;
35677;SDS011;21791;42.828;74.582;2023-02-11T07:51:18;48.90;;;30.23;;
35677;SDS011;21791;42.828;74.582;2023-02-11T07:53:50;52.30;;;30.90;;
35677;SDS011;21791;42.828;74.582;2023-02-11T07:56:17;55.47;;;30.13;;
35677;SDS011;21791;42.828;74.582;2023-02-11T07:58:44;47.03;;;27.60;;
35677;SDS011;21791;42.828;74.582;2023-02-11T08:01:13;47.38;;;28.77;;
35677;SDS011;21791;42.828;74.582;2023-02-11T08:03:41;52.65;;;29.25;;
35677;SDS011;21791;42.828;74.582;2023-02-11T08:06:10;48.92;;;29.02;;
35677;SDS011;21791;42.828;74.582;2023-02-11T08:08:37;51.88;;;28.95;;
35677;SDS011;21791;42.828;74.582;2023-02-11T08:11:05;51.03;;;30.70;;
35677;SDS011;21791;42.828;74.582;2023-02-11T08:13:33;46.00;;;26.45;;
35677;SDS011;21791;42.828;74.582;2023-02-11T08:16:00;49.38;;;26.00;;
35677;SDS011;21791;42.828;74.582;2023-02-11T08:18:28;48.45;;;26.67;;
35677;SDS011;21791;42.828;74.582;2023-02-11T08:20:55;49.10;;;28.35;;
35677;SDS011;21791;42.828;74.582;2023-02-11T08:23:22;52.92;;;27.33;;
35677;SDS011;21791;42.828;74.582;2023-02-11T08:25:48;50.22;;;25.52;;
35677;SDS011;21791;42.828;74.582;2023-02-11T08:28:15;44.42;;;23.65;;
35677;SDS011;21791;42.828;74.582;2023-02-11T08:30:41;41.38;;;22.30;;
35677;SDS011;21791;42.828;74.582;2023-02-11T08:33:07;36.17;;;18.13;;
35677;SDS011;21791;42.828;74.582;2023-02-11T08:35:34;34.40;;;18.70;;
35677;SDS011;21791;42.828;74.582;2023-02-11T08:38:01;43.28;;;21.50;;
35677;SDS011;21791;42.828;74.582;2023-02-11T08:40:28;32.10;;;12.63;;
35677;SDS011;21791;42.828;74.582;2023-02-11T08:42:54;20.05;;;9.20;;
35677;SDS011;21791;42.828;74.582;2023-02-11T08:45:21;25.35;;;12.05;;
35677;SDS011;21791;42.828;74.582;2023-02-11T08:47:47;22.70;;;12.73;;
35677;SDS011;21791;42.828;74.582;2023-02-11T08:50:14;23.10;;;11.45;;
35677;SDS011;21791;42.828;74.582;2023-02-11T08:52:40;25.38;;;12.43;;
35677;SDS011;21791;42.828;74.582;2023-02-11T08:55:08;22.98;;;12.13;;
35677;SDS011;21791;42.828;74.582;2023-02-11T08:57:35;24.10;;;13.30;;
35677;SDS011;21791;42.828;74.582;2023-02-11T09:00:03;22.50;;;10.30;;
35677;SDS011;21791;42.828;74.582;2023-02-11T09:02:30;15.10;;;8.75;;
35677;SDS011;21791;42.828;74.582;2023-02-11T09:04:56;16.35;;;7.45;;
35677;SDS011;21791;42.828;74.582;2023-02-11T09:07:23;16.58;;;8.20;;
35677;SDS011;21791;42.828;74.582;2023-02-11T09:09:50;19.63;;;10.52;;
35677;SDS011;21791;42.828;74.582;2023-02-11T09:12:16;16.10;;;8.30;;
35677;SDS011;21791;42.828;74.582;2023-02-11T09:14:42;14.18;;;8.10;;
35677;SDS011;21791;42.828;74.582;2023-02-11T09:17:09;12.93;;;7.05;;
35677;SDS011;21791;42.828;74.582;2023-02-11T09:19:36;12.40;;;7.00;;
35677;SDS011;21791;42.828;74.582;2023-02-11T09:22:02;16.17;;;7.95;;
35677;SDS011;21791;42.828;74.582;2023-02-11T09:24:29;12.52;;;6.40;;
35677;SDS011;21791;42.828;74.582;2023-02-11T09:26:56;10.70;;;6.57;;
35677;SDS011;21791;42.828;74.582;2023-02-11T09:29:22;16.95;;;8.15;;
35677;SDS011;21791;42.828;74.582;2023-02-11T09:31:49;16.48;;;9.18;;
35677;SDS011;21791;42.828;74.582;2023-02-11T09:34:15;18.55;;;10.52;;
35677;SDS011;21791;42.828;74.582;2023-02-11T09:36:42;17.92;;;9.68;;
35677;SDS011;21791;42.828;74.582;2023-02-11T09:39:11;13.98;;;7.10;;
35677;SDS011;21791;42.828;74.582;2023-02-11T09:44:24;18.92;;;8.13;;
35677;SDS011;21791;42.828;74.582;2023-02-11T09:46:57;24.73;;;12.40;;
35677;SDS011;21791;42.828;74.582;2023-02-11T09:49:49;14.18;;;8.93;;
35677;SDS011;21791;42.828;74.582;2023-02-11T09:55:27;24.42;;;10.15;;
35677;SDS011;21791;42.828;74.582;2023-02-11T09:58:03;17.13;;;9.88;;
35677;SDS011;21791;42.828;74.582;2023-02-11T10:00:39;20.13;;;12.25;;
35677;SDS011;21791;42.828;74.582;2023-02-11T10:06:09;20.10;;;10.10;;
35677;SDS011;21791;42.828;74.582;2023-02-11T10:12:00;16.20;;;9.73;;
35677;SDS011;21791;42.828;74.582;2023-02-11T10:17:02;18.63;;;9.00;;
35677;SDS011;21791;42.828;74.582;2023-02-11T10:22:46;17.33;;;9.95;;
35677;SDS011;21791;42.828;74.582;2023-02-11T10:25:25;19.95;;;10.48;;
35677;SDS011;21791;42.828;74.582;2023-02-11T10:27:55;19.52;;;10.13;;
35677;SDS011;21791;42.828;74.582;2023-02-11T10:30:29;17.33;;;10.48;;
35677;SDS011;21791;42.828;74.582;2023-02-11T10:33:03;19.45;;;9.93;;
35677;SDS011;21791;42.828;74.582;2023-02-11T10:35:38;18.17;;;10.50;;
35677;SDS011;21791;42.828;74.582;2023-02-11T10:38:04;20.33;;;10.88;;
35677;SDS011;21791;42.828;74.582;2023-02-11T10:40:32;18.80;;;10.82;;
35677;SDS011;21791;42.828;74.582;2023-02-11T10:43:03;20.67;;;11.55;;
35677;SDS011;21791;42.828;74.582;2023-02-11T10:48:04;20.45;;;11.88;;
35677;SDS011;21791;42.828;74.582;2023-02-11T10:51:05;21.88;;;12.38;;
35677;SDS011;21791;42.828;74.582;2023-02-11T10:56:57;19.92;;;11.32;;
35677;SDS011;21791;42.828;74.582;2023-02-11T10:59:32;22.67;;;12.10;;
35677;SDS011;21791;42.828;74.582;2023-02-11T11:02:15;23.70;;;12.75;;
35677;SDS011;21791;42.828;74.582;2023-02-11T11:04:49;22.40;;;13.55;;
35677;SDS011;21791;42.828;74.582;2023-02-11T11:07:24;23.80;;;14.00;;
35677;SDS011;21791;42.828;74.582;2023-02-11T11:10:05;25.35;;;14.60;;
35677;SDS011;21791;42.828;74.582;2023-02-11T11:12:52;24.73;;;13.57;;
35677;SDS011;21791;42.828;74.582;2023-02-11T11:15:20;28.70;;;13.73;;
35677;SDS011;21791;42.828;74.582;2023-02-11T11:17:50;24.33;;;13.38;;
35677;SDS011;21791;42.828;74.582;2023-02-11T11:20:35;28.58;;;15.68;;
35677;SDS011;21791;42.828;74.582;2023-02-11T11:25:57;32.95;;;18.02;;
35677;SDS011;21791;42.828;74.582;2023-02-11T11:28:32;34.30;;;18.23;;
35677;SDS011;21791;42.828;74.582;2023-02-11T11:31:16;30.65;;;17.65;;
35677;SDS011;21791;42.828;74.582;2023-02-11T11:33:49;31.67;;;17.98;;
35677;SDS011;21791;42.828;74.582;2023-02-11T11:36:21;38.78;;;18.95;;
35677;SDS011;21791;42.828;74.582;2023-02-11T11:38:57;34.35;;;18.52;;
35677;SDS011;21791;42.828;74.582;2023-02-11T11:41:29;39.58;;;19.92;;
35677;SDS011;21791;42.828;74.582;2023-02-11T11:46:45;32.72;;;17.05;;
35677;SDS011;21791;42.828;74.582;2023-02-11T11:49:27;31.50;;;17.90;;
35677;SDS011;21791;42.828;74.582;2023-02-11T11:57:36;28.67;;;15.75;;
35677;SDS011;21791;42.828;74.582;2023-02-11T12:00:04;26.67;;;16.00;;
35677;SDS011;21791;42.828;74.582;2023-02-11T12:02:44;33.70;;;17.23;;
35677;SDS011;21791;42.828;74.582;2023-02-11T12:07:58;39.65;;;20.45;;
35677;SDS011;21791;42.828;74.582;2023-02-11T12:21:15;21.38;;;11.65;;
35677;SDS011;21791;42.828;74.582;2023-02-11T12:24:04;27.42;;;12.00;;
35677;SDS011;21791;42.828;74.582;2023-02-11T12:26:46;21.23;;;11.80;;
35677;SDS011;21791;42.828;74.582;2023-02-11T12:29:22;29.23;;;15.00;;
35677;SDS011;21791;42.828;74.582;2023-02-11T12:40:32;38.35;;;19.60;;
35677;SDS011;21791;42.828;74.582;2023-02-11T12:50:50;36.38;;;19.35;;
35677;SDS011;21791;42.828;74.582;2023-02-11T12:56:13;38.45;;;20.40;;
35677;SDS011;21791;42.828;74.582;2023-02-11T12:58:45;38.35;;;21.17;;
35677;SDS011;21791;42.828;74.582;2023-02-11T13:01:23;44.10;;;23.60;;
35677;SDS011;21791;42.828;74.582;2023-02-11T13:03:58;47.20;;;21.92;;
35677;SDS011;21791;42.828;74.582;2023-02-11T13:06:48;50.78;;;24.40;;
35677;SDS011;21791;42.828;74.582;2023-02-11T13:09:25;41.17;;;22.08;;
35677;SDS011;21791;42.828;74.582;2023-02-11T13:12:16;55.15;;;27.02;;
35677;SDS011;21791;42.828;74.582;2023-02-11T13:15:02;59.45;;;29.13;;
35677;SDS011;21791;42.828;74.582;2023-02-11T13:17:35;59.15;;;31.50;;
35677;SDS011;21791;42.828;74.582;2023-02-11T13:20:32;65.03;;;30.23;;
35677;SDS011;21791;42.828;74.582;2023-02-11T13:23:01;54.20;;;28.70;;
35677;SDS011;21791;42.828;74.582;2023-02-11T13:25:47;48.80;;;24.80;;
35677;SDS011;21791;42.828;74.582;2023-02-11T13:28:32;46.67;;;21.70;;
35677;SDS011;21791;42.828;74.582;2023-02-11T13:31:10;45.53;;;23.33;;
35677;SDS011;21791;42.828;74.582;2023-02-11T13:33:39;47.10;;;23.05;;
35677;SDS011;21791;42.828;74.582;2023-02-11T13:36:11;38.65;;;19.67;;
35677;SDS011;21791;42.828;74.582;2023-02-11T13:38:56;38.90;;;19.92;;
35677;SDS011;21791;42.828;74.582;2023-02-11T13:41:35;42.97;;;19.30;;
35677;SDS011;21791;42.828;74.582;2023-02-11T13:49:20;41.25;;;21.15;;
35677;SDS011;21791;42.828;74.582;2023-02-11T13:51:54;38.72;;;21.70;;
35677;SDS011;21791;42.828;74.582;2023-02-11T13:54:24;46.33;;;24.13;;
35677;SDS011;21791;42.828;74.582;2023-02-11T13:59:46;53.65;;;27.00;;
35677;SDS011;21791;42.828;74.582;2023-02-11T14:16:18;59.88;;;32.50;;
35677;SDS011;21791;42.828;74.582;2023-02-11T14:21:21;55.63;;;29.15;;
35677;SDS011;21791;42.828;74.582;2023-02-11T14:23:49;50.90;;;29.10;;
35677;SDS011;21791;42.828;74.582;2023-02-11T14:28:45;51.03;;;27.70;;
35677;SDS011;21791;42.828;74.582;2023-02-11T14:31:41;43.42;;;24.02;;
35677;SDS011;21791;42.828;74.582;2023-02-11T14:34:39;40.90;;;24.17;;
35677;SDS011;21791;42.828;74.582;2023-02-11T14:42:49;43.67;;;22.50;;
35677;SDS011;21791;42.828;74.582;2023-02-11T14:45:18;40.22;;;22.70;;
35677;SDS011;21791;42.828;74.582;2023-02-11T14:47:55;38.85;;;22.35;;
35677;SDS011;21791;42.828;74.582;2023-02-11T14:50:33;38.92;;;21.40;;
35677;SDS011;21791;42.828;74.582;2023-02-11T14:53:24;38.65;;;21.75;;
35677;SDS011;21791;42.828;74.582;2023-02-11T14:55:53;43.35;;;22.35;;
35677;SDS011;21791;42.828;74.582;2023-02-11T14:58:21;32.55;;;17.80;;
35677;SDS011;21791;42.828;74.582;2023-02-11T15:00:53;37.40;;;19.20;;
35677;SDS011;21791;42.828;74.582;2023-02-11T15:05:56;35.45;;;18.25;;
35677;SDS011;21791;42.828;74.582;2023-02-11T15:08:30;30.00;;;15.95;;
35677;SDS011;21791;42.828;74.582;2023-02-11T15:11:06;24.13;;;13.63;;
35677;SDS011;21791;42.828;74.582;2023-02-11T15:13:36;31.13;;;14.60;;
35677;SDS011;21791;42.828;74.582;2023-02-11T15:16:05;32.47;;;16.13;;
35677;SDS011;21791;42.828;74.582;2023-02-11T15:18:35;26.55;;;14.07;;
35677;SDS011;21791;42.828;74.582;2023-02-11T15:21:06;33.22;;;18.08;;
35677;SDS011;21791;42.828;74.582;2023-02-11T15:23:34;32.42;;;15.18;;
35677;SDS011;21791;42.828;74.582;2023-02-11T15:26:01;31.45;;;15.73;;
35677;SDS011;21791;42.828;74.582;2023-02-11T15:28:37;27.10;;;14.13;;
35677;SDS011;21791;42.828;74.582;2023-02-11T15:31:16;29.77;;;15.13;;
35677;SDS011;21791;42.828;74.582;2023-02-11T15:33:43;23.38;;;13.95;;
35677;SDS011;21791;42.828;74.582;2023-02-11T15:36:11;25.63;;;12.93;;
35677;SDS011;21791;42.828;74.582;2023-02-11T15:38:40;28.48;;;14.25;;
35677;SDS011;21791;42.828;74.582;2023-02-11T15:41:07;29.95;;;13.80;;
35677;SDS011;21791;42.828;74.582;2023-02-11T15:44:01;27.90;;;13.57;;
35677;SDS011;21791;42.828;74.582;2023-02-11T15:46:38;28.00;;;13.02;;
35677;SDS011;21791;42.828;74.582;2023-02-11T15:49:05;21.17;;;11.35;;
35677;SDS011;21791;42.828;74.582;2023-02-11T15:51:43;20.13;;;9.30;;
35677;SDS011;21791;42.828;74.582;2023-02-11T15:54:15;18.27;;;8.30;;
35677;SDS011;21791;42.828;74.582;2023-02-11T15:56:50;14.68;;;7.85;;
35677;SDS011;21791;42.828;74.582;2023-02-11T15:59:26;13.68;;;8.13;;
35677;SDS011;21791;42.828;74.582;2023-02-11T16:01:56;15.70;;;7.30;;
35677;SDS011;21791;42.828;74.582;2023-02-11T16:04:30;12.88;;;6.47;;
35677;SDS011;21791;42.828;74.582;2023-02-11T16:06:56;13.93;;;6.97;;
35677;SDS011;21791;42.828;74.582;2023-02-11T16:09:24;12.05;;;6.22;;
35677;SDS011;21791;42.828;74.582;2023-02-11T16:12:04;13.38;;;6.40;;
35677;SDS011;21791;42.828;74.582;2023-02-11T16:14:48;13.82;;;6.65;;
35677;SDS011;21791;42.828;74.582;2023-02-11T16:19:45;15.18;;;7.80;;
35677;SDS011;21791;42.828;74.582;2023-02-11T16:22:15;13.80;;;7.20;;
35677;SDS011;21791;42.828;74.582;2023-02-11T16:24:54;13.77;;;7.75;;
35677;SDS011;21791;42.828;74.582;2023-02-11T16:27:28;16.15;;;7.80;;
35677;SDS011;21791;42.828;74.582;2023-02-11T16:30:05;21.25;;;8.63;;
35677;SDS011;21791;42.828;74.582;2023-02-11T16:32:47;19.67;;;8.05;;
35677;SDS011;21791;42.828;74.582;2023-02-11T16:35:13;21.02;;;8.95;;
35677;SDS011;21791;42.828;74.582;2023-02-11T16:37:40;21.85;;;9.60;;
35677;SDS011;21791;42.828;74.582;2023-02-11T16:40:07;24.10;;;9.85;;
35677;SDS011;21791;42.828;74.582;2023-02-11T16:42:36;21.90;;;9.07;;
35677;SDS011;21791;42.828;74.582;2023-02-11T16:45:03;20.98;;;9.30;;
35677;SDS011;21791;42.828;74.582;2023-02-11T16:47:29;21.73;;;9.32;;
35677;SDS011;21791;42.828;74.582;2023-02-11T16:49:57;21.98;;;9.48;;
35677;SDS011;21791;42.828;74.582;2023-02-11T16:52:25;19.38;;;8.63;;
35677;SDS011;21791;42.828;74.582;2023-02-11T16:54:51;22.80;;;9.35;;
35677;SDS011;21791;42.828;74.582;2023-02-11T16:57:20;18.27;;;9.02;;
35677;SDS011;21791;42.828;74.582;2023-02-11T16:59:49;14.43;;;8.57;;